createdAt,value
2018-07-02T00:00:01.195Z,49.56
2018-07-02T00:01:01.162Z,49.46
2018-07-02T00:02:01.149Z,49.56
2018-07-02T00:03:01.138Z,49.86
2018-07-02T00:04:01.129Z,49.66
2018-07-02T00:05:01.162Z,49.56
2018-07-02T00:06:01.108Z,49.56
2018-07-02T00:07:01.097Z,49.76
2018-07-02T00:08:01.085Z,49.56
2018-07-02T00:09:01.073Z,49.56
2018-07-02T00:10:01.061Z,49.86
2018-07-02T00:11:01.086Z,49.76
2018-07-02T00:12:01.042Z,49.86
2018-07-02T00:13:01.029Z,49.66
2018-07-02T00:14:01.018Z,49.56
2018-07-02T00:15:01.007Z,49.86
2018-07-02T00:16:01.017Z,49.86
2018-07-02T00:17:00.997Z,49.76
2018-07-02T00:18:00.974Z,49.86
2018-07-02T00:19:00.964Z,49.86
2018-07-02T00:20:00.954Z,49.76
2018-07-02T00:21:00.961Z,49.76
2018-07-02T00:22:00.944Z,49.96
2018-07-02T00:23:00.921Z,49.66
2018-07-02T00:24:00.909Z,49.66
2018-07-02T00:25:00.898Z,49.96
2018-07-02T00:26:00.909Z,49.86
2018-07-02T00:27:00.878Z,49.86
2018-07-02T00:28:00.881Z,49.66
2018-07-02T00:29:00.856Z,49.96
2018-07-02T00:30:00.847Z,49.76
2018-07-02T00:31:00.854Z,49.96
2018-07-02T00:32:00.822Z,49.76
2018-07-02T00:33:00.810Z,49.86
2018-07-02T00:34:00.810Z,49.86
2018-07-02T00:35:00.790Z,49.66
2018-07-02T00:36:00.798Z,49.76
2018-07-02T00:37:00.770Z,50.05
2018-07-02T00:38:00.757Z,49.86
2018-07-02T00:39:00.751Z,49.86
2018-07-02T00:40:00.749Z,49.86
2018-07-02T00:41:00.744Z,49.56
2018-07-02T00:42:00.713Z,49.96
2018-07-02T00:43:00.703Z,49.96
2018-07-02T00:44:00.690Z,49.76
2018-07-02T00:45:00.683Z,49.76
2018-07-02T00:46:00.705Z,50.45
2018-07-02T00:47:00.659Z,49.66
2018-07-02T00:48:00.651Z,50.45
2018-07-02T00:49:00.637Z,49.56
2018-07-02T00:50:00.628Z,49.76
2018-07-02T00:51:00.635Z,49.58
2018-07-02T00:52:00.617Z,49.86
2018-07-02T00:53:00.593Z,49.76
2018-07-02T00:54:00.582Z,49.68
2018-07-02T00:55:00.572Z,49.86
2018-07-02T00:56:00.580Z,50.38
2018-07-02T00:57:00.552Z,50.48
2018-07-02T00:58:00.555Z,49.98
2018-07-02T00:59:00.527Z,49.86
2018-07-02T01:00:00.516Z,50.45
2018-07-02T01:01:00.529Z,50.38
2018-07-02T01:02:00.495Z,49.76
2018-07-02T01:03:00.484Z,49.98
2018-07-02T01:04:00.485Z,50.16
2018-07-02T01:05:00.463Z,49.96
2018-07-02T01:06:00.471Z,49.98
2018-07-02T01:07:00.441Z,50.18
2018-07-02T01:08:00.428Z,50.48
2018-07-02T01:09:00.418Z,50.18
2018-07-02T01:10:00.418Z,49.78
2018-07-02T01:11:00.417Z,49.58
2018-07-02T01:12:00.387Z,49.98
2018-07-02T01:13:00.375Z,50.48
2018-07-02T01:14:00.364Z,50.08
2018-07-02T01:15:00.352Z,50.18
2018-07-02T01:16:00.378Z,50.38
2018-07-02T01:17:00.334Z,49.96
2018-07-02T01:18:00.321Z,50.08
2018-07-02T01:19:00.310Z,50.38
2018-07-02T01:20:00.298Z,50.05
2018-07-02T01:21:00.307Z,50.38
2018-07-02T01:22:00.296Z,50.16
2018-07-02T01:23:00.266Z,49.98
2018-07-02T01:24:00.254Z,50.35
2018-07-02T01:25:00.244Z,50.38
2018-07-02T01:26:00.254Z,50.28
2018-07-02T01:27:00.222Z,50.18
2018-07-02T01:28:00.222Z,50.18
2018-07-02T01:29:00.200Z,49.98
2018-07-02T01:30:00.192Z,50.18
2018-07-02T01:31:00.199Z,50.48
2018-07-02T01:32:00.168Z,50.28
2018-07-02T01:33:00.159Z,50.18
2018-07-02T01:34:00.158Z,50.18
2018-07-02T01:35:00.138Z,50.08
2018-07-02T01:36:00.146Z,50.18
2018-07-02T01:37:00.114Z,49.78
2018-07-02T01:38:00.104Z,49.98
2018-07-02T01:39:00.092Z,49.98
2018-07-02T01:40:00.097Z,50.28
2018-07-02T01:41:00.092Z,50.18
2018-07-02T01:42:00.059Z,50.38
2018-07-02T01:43:00.050Z,50.08
2018-07-02T01:44:00.038Z,50.28
2018-07-02T01:45:00.029Z,50.38
2018-07-02T01:46:00.066Z,50.18
2018-07-02T01:47:00.012Z,50.08
2018-07-02T01:47:59.995Z,50.18
2018-07-02T01:48:59.983Z,50.18
2018-07-02T01:49:59.972Z,49.98
2018-07-02T01:50:59.990Z,50.28
2018-07-02T01:51:59.987Z,50.18
2018-07-02T01:52:59.939Z,50.38
2018-07-02T01:53:59.928Z,50.38
2018-07-02T01:54:59.918Z,50.38
2018-07-02T01:55:59.905Z,50.08
2018-07-02T01:56:59.917Z,50.18
2018-07-02T01:57:59.904Z,50.38
2018-07-02T01:58:59.873Z,50.18
2018-07-02T01:59:59.862Z,50.18
2018-07-02T02:00:59.851Z,49.98
2018-07-02T02:01:59.864Z,50.38
2018-07-02T02:02:59.828Z,50.38
2018-07-02T02:03:59.830Z,50.38
2018-07-02T02:04:59.809Z,50.18
2018-07-02T02:05:59.798Z,50.08
2018-07-02T02:06:59.810Z,50.18
2018-07-02T02:07:59.775Z,50.18
2018-07-02T02:08:59.765Z,50.28
2018-07-02T02:09:59.769Z,50.18
2018-07-02T02:10:59.743Z,50.18
2018-07-02T02:11:59.752Z,50.18
2018-07-02T02:12:59.723Z,50.18
2018-07-02T02:13:59.712Z,50.38
2018-07-02T02:14:59.700Z,50.18
2018-07-02T02:15:59.704Z,50.08
2018-07-02T02:16:59.699Z,50.28
2018-07-02T02:17:59.669Z,50.78
2018-07-02T02:18:59.655Z,50.18
2018-07-02T02:19:59.646Z,50.38
2018-07-02T02:20:59.635Z,50.18
2018-07-02T02:21:59.658Z,50.08
2018-07-02T02:22:59.614Z,50.38
2018-07-02T02:23:59.602Z,50.18
2018-07-02T02:24:59.591Z,50.08
2018-07-02T02:25:59.581Z,50.18
2018-07-02T02:26:59.589Z,49.78
2018-07-02T02:27:59.576Z,50.18
2018-07-02T02:28:59.549Z,50.08
2018-07-02T02:29:59.536Z,49.88
2018-07-02T02:30:59.528Z,50.08
2018-07-02T02:31:59.535Z,50.08
2018-07-02T02:32:59.507Z,50.18
2018-07-02T02:33:59.511Z,50.18
2018-07-02T02:34:59.483Z,50.18
2018-07-02T02:35:59.472Z,50.38
2018-07-02T02:36:59.480Z,50.18
2018-07-02T02:37:59.459Z,50.18
2018-07-02T02:38:59.439Z,50.08
2018-07-02T02:39:59.442Z,50.08
2018-07-02T02:40:59.418Z,50.08
2018-07-02T02:41:59.428Z,50.08
2018-07-02T02:42:59.408Z,50.38
2018-07-02T02:43:59.386Z,50.38
2018-07-02T02:44:59.374Z,50.08
2018-07-02T02:45:59.379Z,50.20
2018-07-02T02:46:59.373Z,50.18
2018-07-02T02:47:59.341Z,50.08
2018-07-02T02:48:59.330Z,50.28
2018-07-02T02:49:59.318Z,50.18
2018-07-02T02:50:59.312Z,50.08
2018-07-02T02:51:59.332Z,50.08
2018-07-02T02:52:59.288Z,50.10
2018-07-02T02:53:59.279Z,50.28
2018-07-02T02:54:59.265Z,50.08
2018-07-02T02:55:59.255Z,50.08
2018-07-02T02:56:59.265Z,50.28
2018-07-02T02:57:59.255Z,50.08
2018-07-02T02:58:59.222Z,50.08
2018-07-02T02:59:59.212Z,50.08
2018-07-02T03:00:59.199Z,50.08
2018-07-02T03:01:59.209Z,50.20
2018-07-02T03:02:59.176Z,50.28
2018-07-02T03:03:59.181Z,50.38
2018-07-02T03:04:59.157Z,50.28
2018-07-02T03:05:59.144Z,50.28
2018-07-02T03:06:59.156Z,50.28
2018-07-02T03:07:59.123Z,50.08
2018-07-02T03:08:59.112Z,50.28
2018-07-02T03:09:59.121Z,50.18
2018-07-02T03:10:59.093Z,50.10
2018-07-02T03:11:59.102Z,50.18
2018-07-02T03:12:59.072Z,50.20
2018-07-02T03:13:59.057Z,50.28
2018-07-02T03:14:59.050Z,49.88
2018-07-02T03:15:59.048Z,50.18
2018-07-02T03:16:59.047Z,50.28
2018-07-02T03:17:59.015Z,50.31
2018-07-02T03:18:59.005Z,50.20
2018-07-02T03:19:58.993Z,50.38
2018-07-02T03:20:58.981Z,50.18
2018-07-02T03:21:59.013Z,50.20
2018-07-02T03:22:58.963Z,50.28
2018-07-02T03:23:58.955Z,50.31
2018-07-02T03:24:58.937Z,50.20
2018-07-02T03:25:58.928Z,50.50
2018-07-02T03:26:58.939Z,50.10
2018-07-02T03:27:58.920Z,50.28
2018-07-02T03:28:58.895Z,50.90
2018-07-02T03:29:58.886Z,50.80
2018-07-02T03:30:58.883Z,50.10
2018-07-02T03:31:58.886Z,50.20
2018-07-02T03:32:58.872Z,50.50
2018-07-02T03:33:58.862Z,50.50
2018-07-02T03:34:58.829Z,50.40
2018-07-02T03:35:58.823Z,49.80
2018-07-02T03:36:58.811Z,50.40
2018-07-02T03:37:58.818Z,50.40
2018-07-02T03:38:58.786Z,50.40
2018-07-02T03:39:58.787Z,49.91
2018-07-02T03:40:58.765Z,49.91
2018-07-02T03:41:58.756Z,49.88
2018-07-02T03:42:58.763Z,50.31
2018-07-02T03:43:58.733Z,50.40
2018-07-02T03:44:58.720Z,51.00
2018-07-02T03:45:58.724Z,50.40
2018-07-02T03:46:58.699Z,50.38
2018-07-02T03:47:58.711Z,49.71
2018-07-02T03:48:58.677Z,49.91
2018-07-02T03:49:58.666Z,50.31
2018-07-02T03:50:58.655Z,50.10
2018-07-02T03:51:58.656Z,50.40
2018-07-02T03:52:58.654Z,50.10
2018-07-02T03:53:58.626Z,50.50
2018-07-02T03:54:58.612Z,50.10
2018-07-02T03:55:58.601Z,50.31
2018-07-02T03:56:58.590Z,50.78
2018-07-02T03:57:58.614Z,50.40
2018-07-02T03:58:58.601Z,50.40
2018-07-02T03:59:58.560Z,50.31
2018-07-02T04:00:58.547Z,50.60
2018-07-02T04:01:58.541Z,49.71
2018-07-02T04:02:58.544Z,50.31
2018-07-02T04:03:58.526Z,50.31
2018-07-02T04:04:58.504Z,50.31
2018-07-02T04:05:58.492Z,49.91
2018-07-02T04:06:58.481Z,50.31
2018-07-02T04:07:58.494Z,49.80
2018-07-02T04:08:58.463Z,50.20
2018-07-02T04:09:58.461Z,49.91
2018-07-02T04:10:58.442Z,50.50
2018-07-02T04:11:58.427Z,50.20
2018-07-02T04:12:58.469Z,50.50
2018-07-02T04:13:58.405Z,49.91
2018-07-02T04:14:58.394Z,49.80
2018-07-02T04:15:58.398Z,50.40
2018-07-02T04:16:58.371Z,50.40
2018-07-02T04:17:58.383Z,50.31
2018-07-02T04:18:58.350Z,50.20
2018-07-02T04:19:58.341Z,50.31
2018-07-02T04:20:58.328Z,49.91
2018-07-02T04:21:58.330Z,50.80
2018-07-02T04:22:58.328Z,50.80
2018-07-02T04:23:58.296Z,49.71
2018-07-02T04:24:58.285Z,50.50
2018-07-02T04:25:58.329Z,49.91
2018-07-02T04:26:58.263Z,50.50
2018-07-02T04:27:58.286Z,50.20
2018-07-02T04:28:58.243Z,50.40
2018-07-02T04:29:58.231Z,50.40
2018-07-02T04:30:58.219Z,50.40
2018-07-02T04:31:58.209Z,50.50
2018-07-02T04:32:58.219Z,50.50
2018-07-02T04:33:58.199Z,50.31
2018-07-02T04:34:58.177Z,50.31
2018-07-02T04:35:58.165Z,50.40
2018-07-02T04:36:58.153Z,50.31
2018-07-02T04:37:58.164Z,50.31
2018-07-02T04:38:58.134Z,50.40
2018-07-02T04:39:58.138Z,50.80
2018-07-02T04:40:58.110Z,50.40
2018-07-02T04:41:58.098Z,50.80
2018-07-02T04:42:58.656Z,50.40
2018-07-02T04:43:58.079Z,49.91
2018-07-02T04:44:58.069Z,50.50
2018-07-02T04:45:58.068Z,50.40
2018-07-02T04:46:58.045Z,50.40
2018-07-02T04:47:58.056Z,50.50
2018-07-02T04:48:58.023Z,50.40
2018-07-02T04:49:58.017Z,50.50
2018-07-02T04:50:58.004Z,50.40
2018-07-02T04:51:58.012Z,50.50
2018-07-02T04:52:58.000Z,50.80
2018-07-02T04:53:57.968Z,50.50
2018-07-02T04:54:57.959Z,50.40
2018-07-02T04:55:57.948Z,50.50
2018-07-02T04:56:57.935Z,50.50
2018-07-02T04:57:57.959Z,50.40
2018-07-02T04:58:57.915Z,50.40
2018-07-02T04:59:57.904Z,50.70
2018-07-02T05:00:57.894Z,50.20
2018-07-02T05:01:57.881Z,50.50
2018-07-02T05:02:57.896Z,50.40
2018-07-02T05:03:57.874Z,50.90
2018-07-02T05:04:57.849Z,50.40
2018-07-02T05:05:57.838Z,50.20
2018-07-02T05:06:57.828Z,50.40
2018-07-02T05:07:57.836Z,50.20
2018-07-02T05:08:57.806Z,50.80
2018-07-02T05:09:57.810Z,50.80
2018-07-02T05:10:57.784Z,50.40
2018-07-02T05:11:57.773Z,50.50
2018-07-02T05:12:57.785Z,50.40
2018-07-02T05:13:57.750Z,50.20
2018-07-02T05:14:57.909Z,50.50
2018-07-02T05:15:57.729Z,48.71
2018-07-02T05:16:57.761Z,48.32
2018-07-02T05:17:57.707Z,47.02
2018-07-02T05:18:57.739Z,47.13
2018-07-02T05:19:57.687Z,46.72
2018-07-02T05:20:57.673Z,45.43
2018-07-02T05:21:57.676Z,45.06
2018-07-02T05:22:57.652Z,44.44
2018-07-02T05:23:57.661Z,42.97
2018-07-02T05:24:57.637Z,43.16
2018-07-02T05:25:57.620Z,43.57
2018-07-02T05:26:57.638Z,43.19
2018-07-02T05:27:57.601Z,42.79
2018-07-02T05:28:57.609Z,43.30
2018-07-02T05:29:57.577Z,43.30
2018-07-02T05:30:57.564Z,43.63
2018-07-02T05:31:57.556Z,43.23
2018-07-02T05:32:57.553Z,43.05
2018-07-02T05:33:57.554Z,43.55
2018-07-02T05:34:57.522Z,43.85
2018-07-02T05:35:57.511Z,43.65
2018-07-02T05:36:57.498Z,43.67
2018-07-02T05:37:57.488Z,43.77
2018-07-02T05:38:57.533Z,43.47
2018-07-02T05:39:57.475Z,43.87
2018-07-02T05:40:57.455Z,44.57
2018-07-02T05:41:57.449Z,43.27
2018-07-02T05:42:57.435Z,43.39
2018-07-02T05:43:57.447Z,43.37
2018-07-02T05:44:57.423Z,44.29
2018-07-02T05:45:57.403Z,44.09
2018-07-02T05:46:57.390Z,44.19
2018-07-02T05:47:57.378Z,44.09
2018-07-02T05:48:57.415Z,43.49
2018-07-02T05:49:57.358Z,45.18
2018-07-02T05:50:57.358Z,41.09
2018-07-02T05:51:57.339Z,41.50
2018-07-02T05:52:57.328Z,40.81
2018-07-02T05:53:57.334Z,40.62
2018-07-02T05:54:57.333Z,39.24
2018-07-02T05:55:57.334Z,39.14
2018-07-02T05:56:57.281Z,40.14
2018-07-02T05:57:57.287Z,40.75
2018-07-02T05:58:57.278Z,41.16
2018-07-02T05:59:57.251Z,42.15
2018-07-02T06:00:57.237Z,40.95
2018-07-02T06:01:57.227Z,40.75
2018-07-02T06:02:57.219Z,40.78
2018-07-02T06:03:57.225Z,39.48
2018-07-02T06:04:57.193Z,39.48
2018-07-02T06:05:57.183Z,39.48
2018-07-02T06:06:57.246Z,41.27
2018-07-02T06:07:57.290Z,41.77
2018-07-02T06:08:57.187Z,42.18
2018-07-02T06:09:57.159Z,41.97
2018-07-02T06:10:57.140Z,41.66
2018-07-02T06:11:57.251Z,41.85
2018-07-02T06:12:57.121Z,42.25
2018-07-02T06:13:57.116Z,42.03
2018-07-02T06:14:57.084Z,41.53
2018-07-02T06:15:57.090Z,41.74
2018-07-02T06:16:57.104Z,40.92
2018-07-02T06:17:57.054Z,40.14
2018-07-02T06:18:57.217Z,39.14
2018-07-02T06:19:57.029Z,39.64
2018-07-02T06:20:57.059Z,39.56
2018-07-02T06:21:57.016Z,38.96
2018-07-02T06:22:57.006Z,39.56
2018-07-02T06:23:57.021Z,41.16
2018-07-02T06:24:56.975Z,40.73
2018-07-02T06:25:57.034Z,41.36
2018-07-02T06:26:56.953Z,41.66
2018-07-02T06:27:56.944Z,40.34
2018-07-02T06:28:57.086Z,39.24
2018-07-02T06:29:56.969Z,37.86
2018-07-02T06:30:56.917Z,39.15
2018-07-02T06:31:56.898Z,39.64
2018-07-02T06:32:56.909Z,39.94
2018-07-02T06:33:56.922Z,39.95
2018-07-02T06:34:56.868Z,39.76
2018-07-02T06:35:56.861Z,39.95
2018-07-02T06:36:56.870Z,38.96
2018-07-02T06:37:56.832Z,38.98
2018-07-02T06:38:56.878Z,39.87
2018-07-02T06:39:56.833Z,39.06
2018-07-02T06:40:56.802Z,38.96
2018-07-02T06:41:56.832Z,39.48
2018-07-02T06:42:56.816Z,40.28
2018-07-02T06:43:56.796Z,39.67
2018-07-02T06:44:56.759Z,39.18
2018-07-02T06:45:56.745Z,37.88
2018-07-02T06:46:56.751Z,40.17
2018-07-02T06:47:56.862Z,39.67
2018-07-02T06:48:56.737Z,39.58
2018-07-02T06:49:56.725Z,38.87
2018-07-02T06:50:56.698Z,39.18
2018-07-02T06:51:56.700Z,38.98
2018-07-02T06:52:56.666Z,38.98
2018-07-02T06:53:56.710Z,39.28
2018-07-02T06:54:56.743Z,38.57
2018-07-02T06:55:56.633Z,39.48
2018-07-02T06:56:56.695Z,39.48
2018-07-02T06:57:56.612Z,37.98
2018-07-02T06:58:56.610Z,37.98
2018-07-02T06:59:56.620Z,39.39
2018-07-02T07:00:56.609Z,39.00
2018-07-02T07:01:56.597Z,39.50
2018-07-02T07:02:56.560Z,40.19
2018-07-02T07:03:56.547Z,39.00
2018-07-02T07:04:56.556Z,39.79
2018-07-02T07:05:56.524Z,39.89
2018-07-02T07:06:56.514Z,39.59
2018-07-02T07:07:56.601Z,39.20
2018-07-02T07:08:56.541Z,39.09
2018-07-02T07:09:56.553Z,39.78
2018-07-02T07:10:56.474Z,39.48
2018-07-02T07:11:56.471Z,39.67
2018-07-02T07:12:56.543Z,40.28
2018-07-02T07:13:56.442Z,39.87
2018-07-02T07:14:56.631Z,40.28
2018-07-02T07:15:56.467Z,39.48
2018-07-02T07:16:56.415Z,38.98
2018-07-02T07:18:31.982Z,39.58
2018-07-02T07:18:56.386Z,39.58
2018-07-02T07:19:56.399Z,39.48
2018-07-02T07:20:56.361Z,39.78
2018-07-02T07:21:58.718Z,40.17
2018-07-02T07:22:56.341Z,39.18
2018-07-02T07:23:56.330Z,40.47
2018-07-02T07:24:56.361Z,39.37
2018-07-02T07:25:56.311Z,39.48
2018-07-02T07:26:56.296Z,39.18
2018-07-02T07:27:56.307Z,38.98
2018-07-02T07:28:56.300Z,40.17
2018-07-02T07:29:56.307Z,38.87
2018-07-02T07:30:56.262Z,40.08
2018-07-02T07:31:56.238Z,39.78
2018-07-02T07:32:56.255Z,39.87
2018-07-02T07:33:56.217Z,40.17
2018-07-02T07:34:56.260Z,40.37
2018-07-02T07:35:56.196Z,40.28
2018-07-02T07:36:56.191Z,40.97
2018-07-02T07:37:56.172Z,40.75
2018-07-02T07:38:56.250Z,39.65
2018-07-02T07:39:56.169Z,39.46
2018-07-02T07:40:56.210Z,40.25
2018-07-02T07:41:56.171Z,40.58
2018-07-02T07:42:56.134Z,39.78
2018-07-02T07:43:56.106Z,40.16
2018-07-02T07:44:56.128Z,39.65
2018-07-02T07:45:56.126Z,40.06
2018-07-02T07:46:56.276Z,39.06
2018-07-02T07:47:56.061Z,40.25
2018-07-02T07:48:56.054Z,40.16
2018-07-02T07:49:56.099Z,39.95
2018-07-02T07:50:57.139Z,40.16
2018-07-02T07:51:56.022Z,40.06
2018-07-02T07:52:56.014Z,40.25
2018-07-02T07:53:55.996Z,40.06
2018-07-02T07:54:56.070Z,40.04
2018-07-02T07:55:56.082Z,40.56
2018-07-02T07:56:55.967Z,40.94
2018-07-02T07:57:55.969Z,40.73
2018-07-02T07:58:55.990Z,40.25
2018-07-02T07:59:55.953Z,40.23
2018-07-02T08:00:55.926Z,39.04
2018-07-02T08:01:56.094Z,39.74
2018-07-02T08:02:55.936Z,39.14
2018-07-02T08:03:55.887Z,39.74
2018-07-02T08:04:55.900Z,39.84
2018-07-02T08:05:55.886Z,39.43
2018-07-02T08:06:55.856Z,39.84
2018-07-02T08:07:55.845Z,39.74
2018-07-02T08:08:55.907Z,39.04
2018-07-02T08:09:55.854Z,39.84
2018-07-02T08:10:55.812Z,40.53
2018-07-02T08:11:55.893Z,40.04
2018-07-02T08:12:55.789Z,39.84
2018-07-02T08:13:55.780Z,38.94
2018-07-02T08:14:55.797Z,40.04
2018-07-02T08:15:55.755Z,40.83
2018-07-02T08:16:55.746Z,39.94
2018-07-02T08:17:55.882Z,39.64
2018-07-02T08:18:55.741Z,39.62
2018-07-02T08:19:55.734Z,37.84
2018-07-02T08:20:55.725Z,39.82
2018-07-02T08:21:55.705Z,40.62
2018-07-02T08:22:56.644Z,39.14
2018-07-02T08:23:55.736Z,40.12
2018-07-02T08:24:55.681Z,39.64
2018-07-02T08:25:55.654Z,39.42
2018-07-02T08:26:55.647Z,39.72
2018-07-02T08:27:55.624Z,40.12
2018-07-02T08:28:55.634Z,40.81
2018-07-02T08:29:55.660Z,40.62
2018-07-02T08:30:55.608Z,39.42
2018-07-02T08:31:55.582Z,39.72
2018-07-02T08:32:55.642Z,40.12
2018-07-02T08:33:55.557Z,40.12
2018-07-02T08:34:55.596Z,39.72
2018-07-02T08:35:55.584Z,40.42
2018-07-02T08:36:55.531Z,40.12
2018-07-02T08:37:55.513Z,40.12
2018-07-02T08:38:55.504Z,40.12
2018-07-02T08:39:55.593Z,40.32
2018-07-02T08:40:55.486Z,40.22
2018-07-02T08:41:55.487Z,40.10
2018-07-02T08:42:55.503Z,39.42
2018-07-02T08:43:55.457Z,40.12
2018-07-02T08:44:55.440Z,40.40
2018-07-02T08:45:55.447Z,40.59
2018-07-02T08:46:55.434Z,40.22
2018-07-02T08:47:55.403Z,40.00
2018-07-02T08:48:55.425Z,40.42
2018-07-02T08:49:55.387Z,39.70
2018-07-02T08:50:55.397Z,39.90
2018-07-02T08:51:55.370Z,40.10
2018-07-02T08:52:55.351Z,38.90
2018-07-02T08:53:55.336Z,38.20
2018-07-02T08:54:55.348Z,39.70
2018-07-02T08:55:55.343Z,39.30
2018-07-02T08:56:55.479Z,40.20
2018-07-02T08:57:55.293Z,39.60
2018-07-02T08:58:55.284Z,39.00
2018-07-02T08:59:55.313Z,39.30
2018-07-02T09:00:55.281Z,40.00
2018-07-02T09:01:55.280Z,39.90
2018-07-02T09:02:55.242Z,39.50
2018-07-02T09:03:55.229Z,40.00
2018-07-02T09:04:55.217Z,40.10
2018-07-02T09:05:55.278Z,40.00
2018-07-02T09:06:55.199Z,40.00
2018-07-02T09:07:55.185Z,40.59
2018-07-02T09:08:55.191Z,40.50
2018-07-02T09:09:55.169Z,39.70
2018-07-02T09:10:55.184Z,39.20
2018-07-02T09:11:55.140Z,39.98
2018-07-02T09:12:55.132Z,40.08
2018-07-02T09:13:55.118Z,39.58
2018-07-02T09:14:55.106Z,39.58
2018-07-02T09:15:55.138Z,40.18
2018-07-02T09:16:55.086Z,39.70
2018-07-02T09:17:55.074Z,39.70
2018-07-02T09:18:55.202Z,39.38
2018-07-02T09:19:55.072Z,40.48
2018-07-02T09:20:55.065Z,39.68
2018-07-02T09:21:55.060Z,39.38
2018-07-02T09:22:55.025Z,38.89
2018-07-02T09:23:55.009Z,39.08
2018-07-02T09:24:54.995Z,39.88
2018-07-02T09:25:55.009Z,39.08
2018-07-02T09:26:54.997Z,38.68
2018-07-02T09:27:54.979Z,39.48
2018-07-02T09:28:54.958Z,39.38
2018-07-02T09:29:54.951Z,38.89
2018-07-02T09:30:54.968Z,39.38
2018-07-02T09:31:54.926Z,38.98
2018-07-02T09:32:54.936Z,39.68
2018-07-02T09:33:54.930Z,40.08
2018-07-02T09:34:54.890Z,40.98
2018-07-02T09:35:54.897Z,40.76
2018-07-02T09:36:54.888Z,41.55
2018-07-02T09:37:54.859Z,40.58
2018-07-02T09:38:54.846Z,37.98
2018-07-02T09:39:55.079Z,38.86
2018-07-02T09:40:54.857Z,40.95
2018-07-02T09:41:55.484Z,40.36
2018-07-02T09:42:54.934Z,39.56
2018-07-02T09:43:54.861Z,37.67
2018-07-02T09:44:54.778Z,40.86
2018-07-02T09:45:54.785Z,40.95
2018-07-02T09:46:54.755Z,39.96
2018-07-02T09:47:54.762Z,39.86
2018-07-02T09:48:54.733Z,38.76
2018-07-02T09:49:54.722Z,39.46
2018-07-02T09:50:54.760Z,38.84
2018-07-02T09:51:54.701Z,39.86
2018-07-02T09:52:54.692Z,35.86
2018-07-02T09:53:54.691Z,37.57
2018-07-02T09:54:54.828Z,37.07
2018-07-02T09:55:54.676Z,37.47
2018-07-02T09:56:54.722Z,36.87
2018-07-02T09:57:54.782Z,38.56
2018-07-02T09:58:54.654Z,38.45
2018-07-02T09:59:54.733Z,37.65
2018-07-02T10:00:54.665Z,37.07
2018-07-02T10:01:54.608Z,37.05
2018-07-02T10:02:54.579Z,38.05
2018-07-02T10:03:54.567Z,38.54
2018-07-02T10:04:54.556Z,39.34
2018-07-02T10:05:54.648Z,38.67
2018-07-02T10:06:54.595Z,36.87
2018-07-02T10:07:54.528Z,35.97
2018-07-02T10:08:54.514Z,37.65
2018-07-02T10:09:54.513Z,37.05
2018-07-02T10:10:54.509Z,38.65
2018-07-02T10:11:54.482Z,38.15
2018-07-02T10:12:54.472Z,38.54
2018-07-02T10:13:54.492Z,37.75
2018-07-02T10:14:54.449Z,38.35
2018-07-02T10:15:54.459Z,37.15
2018-07-02T10:16:54.464Z,35.86
2018-07-02T10:17:54.449Z,37.75
2018-07-02T10:18:54.412Z,35.56
2018-07-02T10:19:54.408Z,36.85
2018-07-02T10:20:54.416Z,36.95
2018-07-02T10:21:54.378Z,37.25
2018-07-02T10:22:54.359Z,37.15
2018-07-02T10:23:54.414Z,36.05
2018-07-02T10:24:54.340Z,36.85
2018-07-02T10:25:54.403Z,36.25
2018-07-02T10:26:54.342Z,36.35
2018-07-02T10:27:54.306Z,37.25
2018-07-02T10:28:54.295Z,36.85
2018-07-02T10:29:54.286Z,37.35
2018-07-02T10:30:54.380Z,37.45
2018-07-02T10:31:54.282Z,38.15
2018-07-02T10:32:54.249Z,38.05
2018-07-02T10:33:54.529Z,36.83
2018-07-02T10:34:54.269Z,36.93
2018-07-02T10:35:54.219Z,36.35
2018-07-02T10:36:55.660Z,37.55
2018-07-02T10:37:54.230Z,35.64
2018-07-02T10:38:54.187Z,36.46
2018-07-02T10:39:54.217Z,36.14
2018-07-02T10:40:54.271Z,36.24
2018-07-02T10:41:54.283Z,36.93
2018-07-02T10:42:54.144Z,35.06
2018-07-02T10:43:54.206Z,35.14
2018-07-02T10:44:54.125Z,35.05
2018-07-02T10:45:54.130Z,35.54
2018-07-02T10:46:54.126Z,35.84
2018-07-02T10:47:54.103Z,36.34
2018-07-02T10:48:54.077Z,37.34
2018-07-02T10:49:54.066Z,37.23
2018-07-02T10:50:54.070Z,36.34
2018-07-02T10:51:54.123Z,36.93
2018-07-02T10:52:54.040Z,38.03
2018-07-02T10:53:54.033Z,37.83
2018-07-02T10:54:54.099Z,38.03
2018-07-02T10:55:54.002Z,38.73
2018-07-02T10:56:54.013Z,39.23
2018-07-02T10:57:53.983Z,39.32
2018-07-02T10:58:54.057Z,39.23
2018-07-02T10:59:53.966Z,39.32
2018-07-02T11:00:53.952Z,39.03
2018-07-02T11:01:53.961Z,36.34
2018-07-02T11:02:53.935Z,37.34
2018-07-02T11:03:53.913Z,36.93
2018-07-02T11:04:53.911Z,36.74
2018-07-02T11:05:53.907Z,36.93
2018-07-02T11:06:53.989Z,37.63
2018-07-02T11:07:53.867Z,36.34
2018-07-02T11:08:54.576Z,36.12
2018-07-02T11:09:53.849Z,37.12
2018-07-02T11:10:53.834Z,37.41
2018-07-02T11:11:53.938Z,35.54
2018-07-02T11:12:53.812Z,37.63
2018-07-02T11:13:53.804Z,36.22
2018-07-02T11:14:53.806Z,37.41
2018-07-02T11:15:53.779Z,35.92
2018-07-02T11:16:53.963Z,34.84
2018-07-02T11:17:53.759Z,35.33
2018-07-02T11:18:53.746Z,34.83
2018-07-02T11:19:53.743Z,35.82
2018-07-02T11:20:54.859Z,36.82
2018-07-02T11:21:54.052Z,37.62
2018-07-02T11:22:53.724Z,38.11
2018-07-02T11:23:53.693Z,37.71
2018-07-02T11:24:53.680Z,38.11
2018-07-02T11:25:53.669Z,37.81
2018-07-02T11:26:53.679Z,37.92
2018-07-02T11:27:53.690Z,37.51
2018-07-02T11:28:53.639Z,37.81
2018-07-02T11:29:53.626Z,38.81
2018-07-02T11:30:53.634Z,38.81
2018-07-02T11:31:53.631Z,38.71
2018-07-02T11:32:53.615Z,39.40
2018-07-02T11:33:53.582Z,39.11
2018-07-02T11:34:53.571Z,39.31
2018-07-02T11:35:53.569Z,39.40
2018-07-02T11:36:53.570Z,39.40
2018-07-02T11:37:53.538Z,38.79
2018-07-02T11:38:53.534Z,39.31
2018-07-02T11:39:53.582Z,38.79
2018-07-02T11:40:53.506Z,39.21
2018-07-02T11:41:53.513Z,38.91
2018-07-02T11:42:53.484Z,39.21
2018-07-02T11:43:53.481Z,38.81
2018-07-02T11:44:53.465Z,39.09
2018-07-02T11:45:53.461Z,39.78
2018-07-02T11:46:53.465Z,40.08
2018-07-02T11:47:53.429Z,39.90
2018-07-02T11:48:53.418Z,39.01
2018-07-02T11:49:53.421Z,38.99
2018-07-02T11:50:53.396Z,38.79
2018-07-02T11:51:53.406Z,39.78
2018-07-02T11:52:53.375Z,39.48
2018-07-02T11:53:53.441Z,38.79
2018-07-02T11:54:53.360Z,39.69
2018-07-02T11:55:53.343Z,39.78
2018-07-02T11:56:53.350Z,39.69
2018-07-02T11:57:53.320Z,39.69
2018-07-02T11:58:53.312Z,39.69
2018-07-02T11:59:53.297Z,39.59
2018-07-02T12:00:53.290Z,39.48
2018-07-02T12:01:53.373Z,39.39
2018-07-02T12:02:53.265Z,39.29
2018-07-02T12:03:53.256Z,39.39
2018-07-02T12:04:53.243Z,39.69
2018-07-02T12:05:53.233Z,39.89
2018-07-02T12:06:53.234Z,39.78
2018-07-02T12:07:53.230Z,40.28
2018-07-02T12:08:53.202Z,40.48
2018-07-02T12:09:53.232Z,40.58
2018-07-02T12:10:53.179Z,39.98
2018-07-02T12:11:53.174Z,40.78
2018-07-02T12:12:53.178Z,39.98
2018-07-02T12:13:53.157Z,40.08
2018-07-02T12:14:53.134Z,40.48
2018-07-02T12:15:53.126Z,40.48
2018-07-02T12:16:53.112Z,41.38
2018-07-02T12:17:53.121Z,40.66
2018-07-02T12:18:53.091Z,40.26
2018-07-02T12:19:53.094Z,40.28
2018-07-02T12:20:53.072Z,40.78
2018-07-02T12:21:53.075Z,40.28
2018-07-02T12:22:53.068Z,40.76
2018-07-02T12:23:53.037Z,39.89
2018-07-02T12:24:53.058Z,40.08
2018-07-02T12:25:53.017Z,40.46
2018-07-02T12:26:53.006Z,40.66
2018-07-02T12:27:53.023Z,40.76
2018-07-02T12:28:52.984Z,40.96
2018-07-02T12:29:52.975Z,40.86
2018-07-02T12:30:52.961Z,40.66
2018-07-02T12:31:53.115Z,40.96
2018-07-02T12:32:52.957Z,41.06
2018-07-02T12:33:52.927Z,40.38
2018-07-02T12:34:52.992Z,40.76
2018-07-02T12:35:52.911Z,40.56
2018-07-02T12:36:52.894Z,40.26
2018-07-02T12:37:52.909Z,40.66
2018-07-02T12:38:52.886Z,40.46
2018-07-02T12:39:52.867Z,40.46
2018-07-02T12:40:52.862Z,40.76
2018-07-02T12:41:52.841Z,40.66
2018-07-02T12:42:52.851Z,40.66
2018-07-02T12:43:52.831Z,40.96
2018-07-02T12:44:52.807Z,41.06
2018-07-02T12:45:52.797Z,40.26
2018-07-02T12:46:52.893Z,40.56
2018-07-02T12:47:52.800Z,39.86
2018-07-02T12:48:52.768Z,39.57
2018-07-02T12:49:52.775Z,39.86
2018-07-02T12:50:52.741Z,39.47
2018-07-02T12:51:52.731Z,39.86